Time;durP1;ratioP1;P1;durP2;ratioP2;P2;SDS_P1;SDS_P2;PMS_P1;PMS_P2;Temp;Humidity;BMP_temperature;BMP_pressure;BME280_temperature;BME280_humidity;BME280_pressure;Samples;Min_cycle;Max_cycle;Signal;HPM_P1;HPM_P2
2023/04/29 00:01:04;;;;;;;12.87;6.60;;;10.70;99.90;;;;;;5023083;28;20177;-73
2023/04/29 00:03:33;;;;;;;11.43;6.30;;;10.60;99.90;;;;;;5009323;28;20212;-74
2023/04/29 00:05:59;;;;;;;11.43;6.03;;;10.60;99.90;;;;;;5018008;28;20186;-73
2023/04/29 00:08:25;;;;;;;12.23;6.17;;;10.60;99.90;;;;;;5025101;28;20961;-73
2023/04/29 00:10:51;;;;;;;10.63;5.67;;;;;;;;;;5023625;28;20222;-74
2023/04/29 00:13:16;;;;;;;11.47;6.20;;;10.50;99.90;;;;;;5026171;28;20220;-74
2023/04/29 00:15:42;;;;;;;13.37;6.03;;;10.40;99.90;;;;;;5023348;28;20189;-74
2023/04/29 00:18:09;;;;;;;9.63;5.87;;;10.40;99.90;;;;;;5026453;28;20212;-73
2023/04/29 00:20:35;;;;;;;9.17;5.80;;;10.40;99.90;;;;;;5024367;28;20182;-74
2023/04/29 00:23:00;;;;;;;9.30;5.63;;;10.50;99.90;;;;;;5028339;28;20181;-74
2023/04/29 00:25:26;;;;;;;12.37;5.90;;;10.40;99.90;;;;;;5025373;28;20537;-75
2023/04/29 00:27:51;;;;;;;12.53;6.47;;;10.30;99.90;;;;;;5029211;28;20244;-86
2023/04/29 00:30:17;;;;;;;10.37;6.80;;;10.30;99.90;;;;;;5028149;28;20585;-74
2023/04/29 00:32:43;;;;;;;11.73;6.57;;;10.30;99.90;;;;;;5023498;28;20209;-74
2023/04/29 00:35:10;;;;;;;14.77;6.80;;;10.30;99.90;;;;;;5024916;28;20273;-74
2023/04/29 00:37:36;;;;;;;12.13;6.53;;;10.30;99.90;;;;;;5017064;28;20185;-73
2023/04/29 00:40:01;;;;;;;9.87;6.57;;;10.30;99.90;;;;;;5025190;28;20182;-76
2023/04/29 00:42:29;;;;;;;13.90;6.67;;;10.30;99.90;;;;;;5019909;28;20183;-75
2023/04/29 00:44:54;;;;;;;15.50;7.20;;;10.30;99.90;;;;;;5025463;28;20212;-75
2023/04/29 00:47:20;;;;;;;12.03;6.90;;;10.30;99.90;;;;;;5022828;28;20174;-74
2023/04/29 00:49:45;;;;;;;11.23;6.20;;;10.20;99.90;;;;;;5028804;28;20265;-76
2023/04/29 00:52:13;;;;;;;11.70;6.57;;;10.20;99.90;;;;;;5023251;28;20260;-76
2023/04/29 00:54:39;;;;;;;13.70;7.00;;;10.10;99.90;;;;;;5026082;28;20170;-74
2023/04/29 00:57:06;;;;;;;13.47;6.63;;;10.10;99.90;;;;;;5027519;28;20257;-76
2023/04/29 00:59:33;;;;;;;11.73;6.50;;;10.10;99.90;;;;;;5023105;28;20197;-77
2023/04/29 01:02:02;;;;;;;19.03;7.17;;;10.00;99.90;;;;;;5017662;28;20739;-74
2023/04/29 01:04:29;;;;;;;10.63;6.67;;;10.00;99.90;;;;;;5022212;28;20185;-75
2023/04/29 01:07:03;;;;;;;14.40;7.33;;;10.00;99.90;;;;;;5027302;28;20178;-74
2023/04/29 01:09:56;;;;;;;10.90;6.50;;;10.00;99.90;;;;;;5023424;28;20217;-74
2023/04/29 01:12:22;;;;;;;12.77;7.17;;;9.90;99.90;;;;;;5027366;28;20202;-73
2023/04/29 01:15:00;;;;;;;13.53;7.40;;;9.70;99.90;;;;;;5029742;28;20192;-73
2023/04/29 01:17:30;;;;;;;15.13;7.33;;;9.80;99.90;;;;;;5026564;28;20182;-73
2023/04/29 01:19:57;;;;;;;16.17;7.47;;;9.80;99.90;;;;;;5029180;28;20648;-73
2023/04/29 01:22:22;;;;;;;11.43;7.47;;;9.80;99.90;;;;;;5029350;28;20182;-76
2023/04/29 01:24:49;;;;;;;11.93;7.57;;;9.70;99.90;;;;;;5032459;28;20170;-74
2023/04/29 01:27:26;;;;;;;12.33;7.57;;;9.60;99.90;;;;;;5030891;28;20267;-74
2023/04/29 01:30:01;;;;;;;12.53;7.30;;;9.70;99.90;;;;;;5028339;28;20169;-74
2023/04/29 01:32:41;;;;;;;15.50;7.70;;;9.70;99.90;;;;;;5024073;28;20206;-75
2023/04/29 01:35:33;;;;;;;11.87;7.20;;;9.70;99.90;;;;;;5025684;28;20280;-74
2023/04/29 01:38:17;;;;;;;14.73;7.80;;;9.70;99.90;;;;;;5026784;28;20337;-74
2023/04/29 01:41:09;;;;;;;17.13;10.23;;;9.80;99.90;;;;;;5030213;28;20664;-74
2023/04/29 01:43:37;;;;;;;19.80;10.37;;;9.80;99.90;;;;;;5025670;28;20174;-75
2023/04/29 01:46:05;;;;;;;21.20;11.03;;;10.00;99.90;;;;;;5024023;28;20186;-76
2023/04/29 01:48:32;;;;;;;25.20;10.70;;;8.80;99.90;;;;;;5027757;28;20189;-77
2023/04/29 01:50:57;;;;;;;31.70;12.43;;;10.00;99.90;;;;;;5027446;28;20179;-76
2023/04/29 01:53:23;;;;;;;41.60;13.03;;;10.20;99.90;;;;;;5027358;28;20236;-75
2023/04/29 01:55:48;;;;;;;36.13;13.37;;;10.10;99.90;;;;;;5026638;28;20189;-75
2023/04/29 01:58:14;;;;;;;23.40;11.77;;;10.10;99.90;;;;;;5030243;28;20185;-77
2023/04/29 02:00:40;;;;;;;23.83;11.93;;;10.10;99.90;;;;;;5027743;28;20561;-75
2023/04/29 02:03:06;;;;;;;26.50;13.53;;;10.10;99.90;;;;;;5025523;28;20418;-77
2023/04/29 02:05:32;;;;;;;23.63;11.40;;;10.10;99.90;;;;;;5030779;28;20268;-77
2023/04/29 02:07:59;;;;;;;19.77;10.50;;;10.10;99.90;;;;;;5025641;28;20186;-77
2023/04/29 02:10:25;;;;;;;34.53;11.73;;;10.20;99.90;;;;;;5027402;28;20304;-78
2023/04/29 02:12:51;;;;;;;349.37;16.17;;;10.10;99.90;;;;;;5027931;28;20280;-74
2023/04/29 02:15:18;;;;;;;333.17;17.50;;;10.00;99.90;;;;;;5027780;28;20529;-73
2023/04/29 02:17:44;;;;;;;399.43;18.83;;;10.00;99.90;;;;;;5025065;28;20198;-74
2023/04/29 02:20:10;;;;;;;325.13;17.70;;;10.10;99.90;;;;;;5029124;28;20182;-73
2023/04/29 02:22:36;;;;;;;426.50;22.03;;;10.10;99.90;;;;;;5023919;28;20174;-74
2023/04/29 02:25:01;;;;;;;348.47;18.90;;;10.20;99.90;;;;;;5027532;28;20186;-74
2023/04/29 02:27:27;;;;;;;107.00;16.07;;;10.10;99.90;;;;;;5026341;28;20193;-74
2023/04/29 02:29:52;;;;;;;191.53;16.77;;;10.10;99.90;;;;;;5027887;28;20178;-75
2023/04/29 02:32:21;;;;;;;311.13;17.17;;;10.30;99.90;;;;;;5024597;28;20262;-73
2023/04/29 02:34:48;;;;;;;187.67;16.93;;;10.10;99.90;;;;;;5025766;28;20182;-73
2023/04/29 02:37:14;;;;;;;214.20;17.67;;;10.20;99.90;;;;;;5025596;28;20257;-73
2023/04/29 02:39:40;;;;;;;194.07;19.00;;;10.40;99.90;;;;;;5024284;28;20173;-74
2023/04/29 02:42:06;;;;;;;271.43;17.03;;;10.40;99.90;;;;;;5026139;28;20166;-73
2023/04/29 02:44:31;;;;;;;191.20;16.07;;;10.20;99.90;;;;;;5023781;28;20182;-73
2023/04/29 02:46:57;;;;;;;111.83;15.37;;;10.40;99.90;;;;;;5026213;28;20174;-73
2023/04/29 02:49:23;;;;;;;255.97;14.93;;;10.40;99.90;;;;;;5022691;28;20343;-73
2023/04/29 02:51:48;;;;;;;158.30;13.20;;;10.20;99.90;;;;;;5027643;28;20231;-73
2023/04/29 02:54:15;;;;;;;170.83;15.30;;;10.20;99.90;;;;;;5023491;28;20214;-73
2023/04/29 02:56:41;;;;;;;204.10;15.07;;;10.20;99.90;;;;;;5026991;28;20170;-74
2023/04/29 02:59:07;;;;;;;208.13;15.37;;;9.90;99.90;;;;;;5027364;28;20181;-74
2023/04/29 03:01:32;;;;;;;199.60;15.80;;;10.20;99.90;;;;;;5029388;28;20181;-74
2023/04/29 03:03:58;;;;;;;121.83;14.33;;;10.10;99.90;;;;;;5025979;28;20178;-74
2023/04/29 03:06:24;;;;;;;110.83;14.70;;;10.20;99.90;;;;;;5024057;28;20186;-74
2023/04/29 03:08:51;;;;;;;180.17;16.23;;;10.10;99.90;;;;;;5024148;28;20205;-75
2023/04/29 03:11:17;;;;;;;146.43;14.10;;;10.20;99.90;;;;;;5022598;28;20191;-75
2023/04/29 03:13:42;;;;;;;221.17;16.37;;;10.20;99.90;;;;;;5026826;28;20224;-75
2023/04/29 03:16:08;;;;;;;125.50;13.23;;;10.20;99.90;;;;;;5023153;28;20182;-75
2023/04/29 03:18:34;;;;;;;109.80;14.17;;;10.20;99.90;;;;;;5027665;28;20722;-75
2023/04/29 03:20:59;;;;;;;76.57;13.90;;;10.20;99.90;;;;;;5023989;28;20182;-75
2023/04/29 03:23:25;;;;;;;92.47;14.33;;;10.20;99.90;;;;;;5025984;28;20209;-75
2023/04/29 03:25:51;;;;;;;101.00;13.30;;;10.30;99.90;;;;;;5024717;28;20183;-75
2023/04/29 03:28:17;;;;;;;137.77;14.20;;;10.30;99.90;;;;;;5024020;28;20707;-75
2023/04/29 03:30:43;;;;;;;134.43;13.47;;;10.20;99.90;;;;;;5020653;28;20265;-75
2023/04/29 03:33:09;;;;;;;82.73;14.60;;;10.30;99.90;;;;;;5025083;28;20316;-77
2023/04/29 03:35:34;;;;;;;74.00;13.63;;;10.10;99.90;;;;;;5023716;28;20190;-77
2023/04/29 03:38:00;;;;;;;80.80;13.97;;;10.20;99.90;;;;;;5019945;28;20185;-75
2023/04/29 03:40:26;;;;;;;96.93;13.30;;;10.30;99.90;;;;;;5022023;28;20265;-72
2023/04/29 03:42:51;;;;;;;86.37;13.40;;;10.30;99.90;;;;;;5020208;28;20182;-72
2023/04/29 03:45:17;;;;;;;40.57;12.03;;;10.20;99.90;;;;;;5014425;28;20211;-72
2023/04/29 03:47:43;;;;;;;56.13;12.30;;;10.20;99.90;;;;;;5023677;28;20680;-72
2023/04/29 03:50:09;;;;;;;65.43;12.03;;;10.20;99.90;;;;;;5014759;28;20205;-71
2023/04/29 03:52:37;;;;;;;28.77;12.00;;;10.30;99.90;;;;;;5022238;28;20206;-72
2023/04/29 03:55:03;;;;;;;44.83;12.43;;;10.20;99.90;;;;;;5024691;28;20217;-72
2023/04/29 03:57:29;;;;;;;92.20;12.80;;;10.30;99.90;;;;;;5026525;28;20258;-72
2023/04/29 03:59:55;;;;;;;56.87;12.33;;;10.30;99.90;;;;;;5016197;28;20223;-71
2023/04/29 04:02:20;;;;;;;116.33;12.57;;;10.20;99.90;;;;;;5022804;28;20189;-71
2023/04/29 04:04:46;;;;;;;36.83;12.00;;;10.20;99.90;;;;;;5021475;28;20266;-71
2023/04/29 04:07:11;;;;;;;76.40;11.63;;;10.00;99.90;;;;;;5025937;28;20223;-71
2023/04/29 04:09:37;;;;;;;49.10;11.23;;;10.20;99.90;;;;;;5019700;28;20222;-71
2023/04/29 04:12:03;;;;;;;34.10;9.90;;;10.10;99.90;;;;;;5006653;28;20177;-74
2023/04/29 04:14:29;;;;;;;46.33;10.73;;;10.10;99.90;;;;;;5026101;28;20223;-75
2023/04/29 04:16:54;;;;;;;26.43;9.87;;;11.20;99.90;;;;;;5025193;28;20541;-72
2023/04/29 04:19:21;;;;;;;57.30;9.83;;;;;;;;;;5018927;28;20236;-72
2023/04/29 04:21:46;;;;;;;66.20;11.03;;;10.00;99.90;;;;;;5021743;28;20174;-72
2023/04/29 04:24:12;;;;;;;113.13;12.17;;;9.90;99.90;;;;;;5024072;28;20188;-71
2023/04/29 04:26:37;;;;;;;81.97;12.37;;;9.90;99.90;;;;;;5021399;28;20257;-72
2023/04/29 04:29:03;;;;;;;44.23;11.17;;;9.80;99.90;;;;;;5023541;28;20178;-71
2023/04/29 04:31:29;;;;;;;59.90;11.03;;;9.80;99.90;;;;;;5020461;28;20273;-73
2023/04/29 04:33:56;;;;;;;82.87;11.67;;;9.80;99.90;;;;;;5025043;28;20220;-74
2023/04/29 04:36:22;;;;;;;39.60;11.80;;;9.90;99.90;;;;;;5022932;28;20170;-75
2023/04/29 04:38:48;;;;;;;177.90;14.40;;;9.90;99.90;;;;;;5026471;28;20641;-83
2023/04/29 04:41:13;;;;;;;31.33;11.30;;;10.00;99.90;;;;;;5026153;28;20186;-85
2023/04/29 04:43:39;;;;;;;95.60;10.10;;;10.00;99.90;;;;;;5022130;28;20214;-84
2023/04/29 04:46:13;;;;;;;70.27;10.30;;;9.90;99.90;;;;;;5024725;28;20186;-84
2023/04/29 04:48:39;;;;;;;137.17;10.40;;;9.90;99.90;;;;;;5022301;28;20708;-83
2023/04/29 04:51:11;;;;;;;166.13;12.83;;;9.90;99.90;;;;;;5030565;28;20205;-86
2023/04/29 04:53:38;;;;;;;77.33;11.20;;;9.70;99.90;;;;;;5050584;28;20228;-85
2023/04/29 04:56:04;;;;;;;82.40;11.57;;;9.70;99.90;;;;;;5038820;28;20189;-88
2023/04/29 04:58:31;;;;;;;62.63;10.53;;;9.80;99.90;;;;;;5036444;28;20195;-85
2023/04/29 05:00:57;;;;;;;47.07;11.27;;;9.80;99.90;;;;;;5026781;28;20166;-86
2023/04/29 05:03:22;;;;;;;42.40;10.87;;;10.00;99.90;;;;;;5043474;28;20206;-86
2023/04/29 05:06:00;;;;;;;41.60;10.47;;;9.90;99.90;;;;;;5041571;28;20536;-83
2023/04/29 05:08:25;;;;;;;25.93;10.60;;;10.00;99.90;;;;;;5026270;28;20232;-80
2023/04/29 05:10:51;;;;;;;25.37;10.93;;;10.00;99.90;;;;;;5024544;28;20245;-77
2023/04/29 05:13:17;;;;;;;43.20;10.63;;;10.00;99.90;;;;;;5022613;28;20700;-77
2023/04/29 05:15:43;;;;;;;19.60;10.37;;;10.00;99.90;;;;;;5025243;28;20178;-77
2023/04/29 05:18:10;;;;;;;30.40;10.47;;;9.80;99.90;;;;;;5022728;28;20190;-77
2023/04/29 05:20:36;;;;;;;29.20;10.10;;;10.70;99.90;;;;;;5025217;28;20169;-77
2023/04/29 05:23:02;;;;;;;26.87;10.23;;;10.30;99.90;;;;;;5026102;28;20181;-78
2023/04/29 05:25:28;;;;;;;25.80;9.77;;;10.00;99.90;;;;;;5024405;28;20193;-77
2023/04/29 05:27:54;;;;;;;19.43;10.27;;;10.10;99.90;;;;;;5025783;28;20292;-77
2023/04/29 05:30:20;;;;;;;21.87;11.07;;;10.20;99.90;;;;;;5023428;28;20182;-77
2023/04/29 05:32:46;;;;;;;32.07;10.33;;;10.20;99.90;;;;;;5024545;28;20226;-77
2023/04/29 05:35:11;;;;;;;23.57;10.53;;;10.20;99.90;;;;;;5024410;28;20665;-77
2023/04/29 05:37:37;;;;;;;19.83;10.77;;;10.10;99.90;;;;;;5024299;28;20174;-77
2023/04/29 05:40:03;;;;;;;21.90;10.07;;;10.20;99.90;;;;;;5004418;28;20186;-75
2023/04/29 05:42:29;;;;;;;21.00;10.30;;;10.20;99.90;;;;;;5025277;28;20182;-74
2023/04/29 05:44:55;;;;;;;19.80;10.47;;;10.30;99.90;;;;;;5022639;28;20191;-75
2023/04/29 05:47:21;;;;;;;19.93;10.57;;;10.20;99.90;;;;;;5028714;28;20304;-75
2023/04/29 05:49:47;;;;;;;21.00;10.10;;;10.40;99.90;;;;;;5022106;28;20186;-75
2023/04/29 05:52:12;;;;;;;20.70;10.53;;;10.40;99.90;;;;;;5025760;28;20182;-75
2023/04/29 05:54:38;;;;;;;31.17;10.77;;;10.40;99.90;;;;;;5021922;28;20622;-75
2023/04/29 05:57:04;;;;;;;21.80;10.30;;;10.50;99.90;;;;;;5022511;28;20217;-75
2023/04/29 05:59:30;;;;;;;22.10;10.20;;;10.50;99.90;;;;;;5025784;28;20235;-75
2023/04/29 06:01:56;;;;;;;18.30;9.97;;;;;;;;;;5028155;28;20174;-76
2023/04/29 06:04:23;;;;;;;18.90;9.17;;;10.50;99.90;;;;;;5028589;28;20806;-75
2023/04/29 06:06:53;;;;;;;17.13;9.30;;;10.50;99.90;;;;;;5024658;28;20633;-76
2023/04/29 06:09:19;;;;;;;19.33;9.60;;;10.60;99.90;;;;;;5027398;28;20218;-76
2023/04/29 06:11:48;;;;;;;17.53;9.10;;;10.60;99.90;;;;;;5025203;28;20174;-76
2023/04/29 06:14:13;;;;;;;18.00;9.93;;;11.00;99.90;;;;;;5029084;28;20214;-76
2023/04/29 06:16:39;;;;;;;20.60;9.80;;;10.40;99.90;;;;;;5024448;28;20557;-76
2023/04/29 06:19:05;;;;;;;23.10;10.40;;;10.70;99.90;;;;;;5013798;28;20205;-76
2023/04/29 06:21:31;;;;;;;23.53;10.00;;;10.70;99.90;;;;;;5020270;28;20186;-77
2023/04/29 06:23:57;;;;;;;23.83;10.97;;;10.70;99.90;;;;;;5036648;28;20173;-81
2023/04/29 06:26:23;;;;;;;20.27;9.70;;;10.80;99.90;;;;;;5048498;28;20198;-81
2023/04/29 06:28:49;;;;;;;23.17;10.57;;;10.80;99.90;;;;;;5047373;28;20182;-76
2023/04/29 06:31:15;;;;;;;29.67;10.43;;;10.70;99.90;;;;;;5014708;28;20192;-71
2023/04/29 06:33:41;;;;;;;25.03;11.33;;;10.80;99.90;;;;;;5028603;28;20613;-72
2023/04/29 06:36:07;;;;;;;24.23;10.47;;;10.70;99.90;;;;;;5027536;28;20182;-73
2023/04/29 06:38:32;;;;;;;28.07;12.13;;;10.80;99.90;;;;;;5027062;28;20656;-72
2023/04/29 06:40:59;;;;;;;27.10;12.10;;;10.80;99.90;;;;;;5028023;28;20223;-72
2023/04/29 06:43:28;;;;;;;25.27;11.17;;;10.90;99.90;;;;;;5023535;28;20241;-72
2023/04/29 06:45:54;;;;;;;27.07;13.73;;;11.00;99.90;;;;;;5026591;28;20181;-76
2023/04/29 06:48:20;;;;;;;28.93;13.63;;;10.80;99.90;;;;;;5025267;28;20175;-75
2023/04/29 06:50:53;;;;;;;29.77;13.27;;;10.90;99.90;;;;;;5030446;28;20266;-75
2023/04/29 06:53:19;;;;;;;30.17;13.43;;;11.10;99.90;;;;;;5022106;28;20217;-75
2023/04/29 06:55:45;;;;;;;33.73;14.00;;;11.20;99.90;;;;;;5024732;28;20178;-74
2023/04/29 06:58:12;;;;;;;34.87;13.63;;;11.20;99.90;;;;;;5027483;28;20182;-73
2023/04/29 07:00:38;;;;;;;29.63;12.97;;;11.10;99.90;;;;;;5024076;28;20669;-75
2023/04/29 07:03:04;;;;;;;33.20;13.07;;;11.30;99.90;;;;;;5025949;28;20178;-74
2023/04/29 07:05:29;;;;;;;39.20;14.70;;;11.30;99.90;;;;;;5030927;28;20555;-73
2023/04/29 07:07:55;;;;;;;38.67;13.77;;;11.40;99.90;;;;;;5029481;28;20173;-74
2023/04/29 07:10:21;;;;;;;37.37;13.70;;;11.50;99.90;;;;;;5027305;28;20236;-73
2023/04/29 07:12:46;;;;;;;35.07;14.07;;;11.40;99.90;;;;;;5027100;28;20206;-75
2023/04/29 07:15:12;;;;;;;38.03;13.37;;;11.40;99.90;;;;;;5027172;28;20644;-74
2023/04/29 07:17:37;;;;;;;33.63;13.50;;;11.50;99.90;;;;;;5008452;28;20186;-74
2023/04/29 07:20:04;;;;;;;36.00;14.13;;;10.70;99.90;;;;;;5021666;28;20533;-74
2023/04/29 07:22:29;;;;;;;34.90;14.17;;;11.50;99.90;;;;;;5029427;28;20185;-71
2023/04/29 07:24:55;;;;;;;35.50;15.00;;;11.50;99.90;;;;;;5004862;28;20190;-71
2023/04/29 07:27:22;;;;;;;36.57;14.57;;;11.60;99.90;;;;;;5026220;28;20190;-74
2023/04/29 07:29:47;;;;;;;36.20;15.37;;;11.70;99.90;;;;;;5022658;28;20189;-73
2023/04/29 07:32:13;;;;;;;37.30;14.70;;;11.50;99.90;;;;;;5024838;28;20190;-74
2023/04/29 07:34:39;;;;;;;30.70;14.07;;;11.60;99.90;;;;;;5025886;28;20190;-74
2023/04/29 07:37:04;;;;;;;32.73;14.17;;;11.60;99.90;;;;;;5023604;28;20637;-74
2023/04/29 07:39:30;;;;;;;36.67;14.30;;;11.60;99.90;;;;;;5026673;28;20373;-74
2023/04/29 07:41:56;;;;;;;34.40;14.83;;;11.50;99.90;;;;;;5023321;28;20178;-73
2023/04/29 07:44:22;;;;;;;31.57;13.20;;;11.30;99.90;;;;;;5025394;28;20166;-74
2023/04/29 07:46:47;;;;;;;36.67;14.60;;;11.30;99.90;;;;;;5022286;28;20190;-74
2023/04/29 07:49:13;;;;;;;33.70;13.80;;;11.40;99.90;;;;;;5028369;28;20178;-74
2023/04/29 07:51:42;;;;;;;35.03;14.23;;;11.40;99.90;;;;;;5023307;28;20633;-81
2023/04/29 07:54:08;;;;;;;29.43;13.07;;;11.30;99.90;;;;;;5031770;28;20210;-87
2023/04/29 07:56:34;;;;;;;32.00;13.37;;;11.40;99.90;;;;;;5030718;28;20178;-85
2023/04/29 07:59:00;;;;;;;29.93;13.17;;;11.60;99.90;;;;;;5039519;28;20186;-83
2023/04/29 08:01:27;;;;;;;30.53;12.87;;;12.00;99.90;;;;;;5049869;28;20285;-86
2023/04/29 08:03:53;;;;;;;30.33;13.97;;;11.90;99.90;;;;;;5033043;28;20194;-84
2023/04/29 08:06:21;;;;;;;26.87;13.20;;;12.10;99.90;;;;;;5050582;28;20178;-84
2023/04/29 08:08:47;;;;;;;28.92;13.65;;;12.00;99.90;;;;;;5043678;28;20182;-83
2023/04/29 08:11:20;;;;;;;34.13;13.60;;;11.90;99.90;;;;;;5040311;28;20189;-84
2023/04/29 08:13:46;;;;;;;29.50;14.40;;;12.20;99.90;;;;;;5029497;28;20300;-82
2023/04/29 08:16:12;;;;;;;27.43;14.10;;;12.20;99.90;;;;;;5026657;28;20182;-82
2023/04/29 08:18:39;;;;;;;31.75;14.98;;;12.30;99.90;;;;;;5025198;28;20214;-86
2023/04/29 08:21:05;;;;;;;27.25;14.32;;;12.30;99.90;;;;;;5026420;28;20190;-82
2023/04/29 08:23:31;;;;;;;26.67;13.45;;;12.40;99.90;;;;;;5026289;28;20185;-82
2023/04/29 08:25:56;;;;;;;29.00;14.60;;;12.40;99.90;;;;;;5031383;28;20197;-83
2023/04/29 08:28:22;;;;;;;28.60;15.85;;;12.40;99.90;;;;;;5025089;28;20178;-81
2023/04/29 08:30:48;;;;;;;25.65;14.93;;;12.40;99.90;;;;;;5029291;28;20268;-81
2023/04/29 08:33:14;;;;;;;31.08;15.65;;;12.40;99.90;;;;;;5025758;28;20226;-76
2023/04/29 08:35:40;;;;;;;25.95;13.73;;;12.70;99.90;;;;;;5020840;28;20177;-73
2023/04/29 08:38:08;;;;;;;26.48;14.98;;;12.90;99.90;;;;;;5025107;28;20244;-74
2023/04/29 08:40:42;;;;;;;29.33;15.25;;;12.90;99.90;;;;;;5026573;28;20173;-74
2023/04/29 08:43:09;;;;;;;28.85;16.67;;;12.90;99.90;;;;;;5028146;28;20231;-76
2023/04/29 08:45:35;;;;;;;31.45;17.15;;;12.60;99.90;;;;;;5008208;28;20257;-75
2023/04/29 08:48:07;;;;;;;32.60;16.25;;;12.70;99.90;;;;;;5024072;28;20286;-76
2023/04/29 08:50:39;;;;;;;27.67;16.15;;;12.90;99.90;;;;;;5020321;28;20181;-76
2023/04/29 08:53:09;;;;;;;29.40;16.55;;;13.10;99.90;;;;;;5023670;28;20220;-76
2023/04/29 08:55:39;;;;;;;27.15;15.23;;;13.20;99.90;;;;;;5022453;28;20642;-75
2023/04/29 08:58:05;;;;;;;30.85;17.25;;;13.30;99.90;;;;;;5027885;28;20538;-75
2023/04/29 09:00:32;;;;;;;30.80;16.35;;;13.30;99.90;;;;;;5019015;28;20173;-75
2023/04/29 09:02:59;;;;;;;30.88;17.15;;;13.40;99.90;;;;;;5028577;28;20227;-76
2023/04/29 09:05:27;;;;;;;29.65;17.83;;;13.30;99.90;;;;;;5023468;28;20170;-77
2023/04/29 09:07:53;;;;;;;34.67;17.35;;;13.30;99.90;;;;;;5024787;28;20205;-76
2023/04/29 09:10:19;;;;;;;32.63;17.70;;;13.40;99.90;;;;;;5024308;28;20242;-77
2023/04/29 09:12:45;;;;;;;35.10;20.10;;;13.30;99.90;;;;;;5030212;28;20240;-74
2023/04/29 09:15:11;;;;;;;32.22;19.10;;;13.10;99.90;;;;;;5021768;28;20186;-75
2023/04/29 09:17:41;;;;;;;33.70;19.42;;;13.00;99.90;;;;;;5025210;28;20177;-76
2023/04/29 09:20:22;;;;;;;35.05;20.02;;;13.10;99.90;;;;;;5022508;28;20181;-73
2023/04/29 09:22:52;;;;;;;33.22;18.83;;;13.30;99.90;;;;;;5021447;28;20177;-74
2023/04/29 09:25:18;;;;;;;39.47;21.48;;;13.30;99.90;;;;;;5023319;28;20193;-75
2023/04/29 09:27:44;;;;;;;36.95;21.35;;;13.50;99.90;;;;;;5026296;28;20193;-75
2023/04/29 09:30:11;;;;;;;36.08;22.10;;;13.60;99.90;;;;;;5020368;28;20173;-74
2023/04/29 09:32:37;;;;;;;37.75;20.77;;;13.60;99.90;;;;;;5022076;28;20261;-74
2023/04/29 09:35:20;;;;;;;34.53;21.10;;;13.90;99.90;;;;;;5027430;28;20258;-73
2023/04/29 09:37:46;;;;;;;35.38;21.35;;;14.10;99.90;;;;;;5023067;28;20182;-73
2023/04/29 09:40:32;;;;;;;34.35;21.38;;;14.10;99.90;;;;;;5028734;28;20191;-74
2023/04/29 09:42:58;;;;;;;37.63;21.92;;;14.10;99.90;;;;;;5026345;28;20182;-75
2023/04/29 09:45:35;;;;;;;39.38;23.02;;;13.90;99.90;;;;;;5024885;28;20171;-74
2023/04/29 09:48:02;;;;;;;38.22;23.10;;;14.10;99.90;;;;;;5029522;28;20644;-75
2023/04/29 09:50:28;;;;;;;39.55;23.63;;;14.40;99.90;;;;;;5025349;28;20645;-74
2023/04/29 09:52:54;;;;;;;37.58;23.40;;;14.60;99.90;;;;;;5028126;28;20212;-75
2023/04/29 09:55:19;;;;;;;42.03;24.35;;;14.70;99.90;;;;;;5024255;28;20213;-74
2023/04/29 09:57:45;;;;;;;38.75;23.60;;;14.70;99.90;;;;;;5027003;28;20220;-74
2023/04/29 10:00:13;;;;;;;42.47;23.73;;;14.80;99.90;;;;;;5024022;28;20205;-74
2023/04/29 10:02:41;;;;;;;42.45;24.67;;;14.80;99.90;;;;;;5026590;28;20713;-74
2023/04/29 10:05:08;;;;;;;37.90;23.50;;;14.90;99.90;;;;;;5024959;28;20182;-74
2023/04/29 10:07:34;;;;;;;42.00;23.48;;;14.90;99.90;;;;;;5025362;28;20268;-74
2023/04/29 10:10:04;;;;;;;38.25;23.30;;;15.30;99.90;;;;;;5025751;28;20296;-73
2023/04/29 10:12:32;;;;;;;43.33;23.75;;;15.10;99.90;;;;;;5025945;28;20544;-75
2023/04/29 10:15:29;;;;;;;36.92;23.60;;;15.20;99.90;;;;;;5027770;28;20203;-74
2023/04/29 10:18:02;;;;;;;38.75;23.63;;;15.50;99.90;;;;;;5010018;28;20546;-74
2023/04/29 10:20:28;;;;;;;41.78;24.42;;;15.50;99.90;;;;;;5022683;28;20650;-73
2023/04/29 10:22:55;;;;;;;40.60;25.92;;;15.50;99.90;;;;;;5028614;28;20254;-74
2023/04/29 10:25:23;;;;;;;44.15;26.17;;;15.50;99.90;;;;;;5025037;28;20190;-74
2023/04/29 10:27:52;;;;;;;46.85;27.58;;;15.40;99.90;;;;;;5028343;28;20181;-75
2023/04/29 10:30:18;;;;;;;43.10;27.00;;;15.40;99.90;;;;;;5007554;28;20178;-74
2023/04/29 10:32:45;;;;;;;46.20;27.70;;;15.40;99.90;;;;;;5009327;28;20256;-74
2023/04/29 10:35:13;;;;;;;42.63;26.92;;;15.30;99.90;;;;;;5026069;28;20181;-74
2023/04/29 10:37:40;;;;;;;40.97;24.52;;;15.30;99.90;;;;;;5026659;28;20182;-74
2023/04/29 10:40:12;;;;;;;40.40;26.38;;;15.50;99.90;;;;;;5026961;28;20174;-75
2023/04/29 10:42:44;;;;;;;42.42;26.15;;;15.60;99.90;;;;;;5025683;28;20170;-74
2023/04/29 10:45:27;;;;;;;42.08;25.88;;;15.70;99.90;;;;;;5022227;28;20246;-75
2023/04/29 10:48:04;;;;;;;42.60;25.05;;;15.60;99.90;;;;;;5028033;28;20197;-74
2023/04/29 10:50:32;;;;;;;40.60;25.23;;;15.60;99.90;;;;;;5025622;28;20174;-74
2023/04/29 10:53:01;;;;;;;41.65;24.55;;;16.00;99.90;;;;;;5002431;28;20224;-75
2023/04/29 10:55:26;;;;;;;38.03;24.15;;;16.00;99.90;;;;;;5023771;28;20182;-75
2023/04/29 10:57:55;;;;;;;39.60;24.85;;;16.10;99.90;;;;;;5027448;28;20177;-74
2023/04/29 11:00:28;;;;;;;37.90;24.13;;;16.70;99.90;;;;;;5025032;28;20174;-74
2023/04/29 11:02:55;;;;;;;38.28;24.05;;;16.50;99.90;;;;;;5027813;28;20232;-71
2023/04/29 11:05:30;;;;;;;36.63;23.45;;;16.70;99.90;;;;;;5007296;28;20186;-77
2023/04/29 11:08:15;;;;;;;40.08;24.88;;;16.60;99.90;;;;;;5027779;28;20272;-75
2023/04/29 11:10:41;;;;;;;40.83;25.88;;;16.80;99.90;;;;;;5023317;28;20214;-73
2023/04/29 11:13:27;;;;;;;36.45;23.27;;;16.40;99.90;;;;;;5027906;28;20271;-75
2023/04/29 11:16:04;;;;;;;36.25;24.80;;;16.60;99.90;;;;;;5024402;28;20186;-75
2023/04/29 11:18:30;;;;;;;37.15;23.75;;;16.70;99.90;;;;;;5026653;28;20315;-74
2023/04/29 11:21:07;;;;;;;37.63;24.75;;;16.30;99.90;;;;;;5023388;28;20182;-74
2023/04/29 11:23:37;;;;;;;38.22;24.08;;;16.90;99.90;;;;;;5026574;28;20189;-74
2023/04/29 11:26:03;;;;;;;39.40;24.98;;;17.40;99.90;;;;;;5027377;28;20268;-74
2023/04/29 11:28:30;;;;;;;38.35;24.35;;;17.20;99.90;;;;;;5029118;28;20277;-74
2023/04/29 11:30:56;;;;;;;35.67;23.30;;;17.50;99.90;;;;;;5025403;28;20170;-75
2023/04/29 11:33:23;;;;;;;36.22;24.00;;;17.90;99.90;;;;;;5026812;28;20205;-74
2023/04/29 11:35:49;;;;;;;36.63;22.92;;;18.10;99.90;;;;;;5023558;28;20189;-75
2023/04/29 11:38:14;;;;;;;34.00;23.73;;;18.40;99.90;;;;;;5027749;28;20177;-75
2023/04/29 11:40:49;;;;;;;39.53;24.63;;;18.10;99.90;;;;;;5022835;28;20170;-74
2023/04/29 11:43:19;;;;;;;33.00;21.65;;;18.00;99.90;;;;;;5022937;28;20208;-73
2023/04/29 11:45:45;;;;;;;36.58;22.75;;;18.10;99.90;;;;;;5022600;28;20186;-74
2023/04/29 11:48:23;;;;;;;31.90;22.65;;;18.30;99.90;;;;;;5024931;28;20197;-74
2023/04/29 11:50:53;;;;;;;34.80;24.13;;;18.50;99.90;;;;;;5017791;28;20196;-74
2023/04/29 11:53:20;;;;;;;30.58;20.30;;;18.60;99.90;;;;;;5026758;28;20201;-74
2023/04/29 11:55:47;;;;;;;31.48;21.95;;;18.50;99.90;;;;;;5026465;28;20170;-74
2023/04/29 11:58:15;;;;;;;30.85;20.35;;;18.90;99.90;;;;;;5025892;28;20177;-76
2023/04/29 12:00:40;;;;;;;30.17;20.83;;;19.20;99.90;;;;;;5025266;28;20243;-76
2023/04/29 12:03:17;;;;;;;28.00;20.02;;;20.60;99.90;;;;;;5026084;28;20643;-76
2023/04/29 12:06:01;;;;;;;28.58;18.02;;;20.80;99.90;;;;;;5024220;28;20231;-76
2023/04/29 12:08:29;;;;;;;25.65;17.45;;;20.70;99.90;;;;;;5023177;28;20658;-75
2023/04/29 12:10:57;;;;;;;27.35;18.00;;;20.30;99.90;;;;;;5022280;28;20313;-75
2023/04/29 12:13:25;;;;;;;28.50;18.92;;;20.60;99.90;;;;;;5023959;28;20214;-74
2023/04/29 12:15:51;;;;;;;24.20;17.70;;;19.50;99.90;;;;;;5020884;28;20392;-74
2023/04/29 12:18:18;;;;;;;27.95;18.35;;;20.00;99.90;;;;;;5024119;28;20260;-75
2023/04/29 12:20:45;;;;;;;25.63;17.40;;;19.90;99.90;;;;;;5021482;28;20181;-73
2023/04/29 12:23:17;;;;;;;25.25;16.42;;;19.70;99.90;;;;;;5024866;28;20170;-74
2023/04/29 12:25:52;;;;;;;24.75;18.27;;;19.80;99.90;;;;;;5025147;28;20182;-73
2023/04/29 12:28:19;;;;;;;25.38;18.73;;;19.50;99.90;;;;;;5020583;28;20327;-74
2023/04/29 12:30:50;;;;;;;29.63;18.70;;;19.30;99.90;;;;;;5020747;28;20174;-74
2023/04/29 12:33:20;;;;;;;26.02;18.23;;;19.50;99.90;;;;;;5017046;28;20205;-74